Smarca, Slovenia

01:24 AM CET on januar 21, 2018 (GMT +0100)
Radomlje | | Change Station

Viš 1089 ft 46.17 °N, 14.61 °E | Updated 45 seconds ago

Sneg
Sneg
32.7 °F
Feels Like 33 °F
N
0.7
Veter Spremenljivo Veter od SV
Gusts 1.6 mph

Danes
High -- | Low -- °F
--% Chance of Precip.
Yesterday
High -- | Low -- °F
Precip. -- v
Zračni tlak 29.59 v
Vidljivost 2.5 milje
Oblaki Razprseni oblaki 200 ft
Pretezno oblacno 5500 ft
Občutek zaradi vetra 33 °F
Rosišče 28 °F
Vlažnost 83%
Padavine 0.00 v
Snow Depth Not available.
7:35 AM 4:50 PM
Naraščajoči krajec, 14% visible
METAR LJLJ 210000Z 16004KT 120V240 4000 BR SCT002 BKN055 M00/M01 Q1002 NOSIG
Zračni tlak 29.59 v
Vidljivost 2.5 milje
Oblaki Razprseni oblaki 200 ft
Pretezno oblacno 5500 ft
Občutek zaradi vetra 33 °F
Rosišče 28 °F
Vlažnost 83%
Padavine 0.00 v
Snow Depth Not available.
7:35 AM 4:50 PM
Naraščajoči krajec, 14% visible
METAR LJLJ 210000Z 16004KT 120V240 4000 BR SCT002 BKN055 M00/M01 Q1002 NOSIG

Get Severe Weather Alerts

Thanks for signing up!

Be on the lookout for a verification email in your inbox.

You'll start receiving the daily forecast at 6 AM.

×

10-Day Weather Forecast

×

Almanac

Astronomija

Jan. 21, 2018 Rise Set
Actual Time
Civil Twilight
Nautical Twilight
Astronomical Twilight
Moon
Length Of Visible Light
Dolžina dneva
Tomorrow will be .
, % of the Moon is Illuminated

Današnji ekstremi

Country Highs Country Lows

Community

WunderPhotos

Category 6

Welcome to Category 6. This is the collective home for Weather Underground's featured writeups by Dr. Jeff Masters (right), Bob Henson (left), Chris Burt, and other regular contributors.

Nearby

Air Quality

  Air Quality AQ Index Pollutant
Not available.

Snow Depth

Station Depth Višina

Earthquake Activity

City Distance Mag. Time & Date
Minimum magnitude displayed is 2.5.

Coastal Water Temperatures

Mesto Temperatura

Stations

Nearby Weather Stations

Station Location Temp Občutek zaradi vetra Rosišče Vlažnost Veter Precip. Viš Obnovljeno Type